Time;durP1;ratioP1;P1;durP2;ratioP2;P2;SDS_P1;SDS_P2;PMS_P1;PMS_P2;Temp;Humidity;BMP_temperature;BMP_pressure;BME280_temperature;BME280_humidity;BME280_pressure;Samples;Min_cycle;Max_cycle;Signal;HPM_P1;HPM_P2
2024/04/05 00:00:14;;;;;;;9.80;3.03;;;14.00;94.70;;;;;;5017750;28;20026;-64
2024/04/05 00:02:49;;;;;;;5.68;2.50;;;14.00;95.20;;;;;;5023788;28;20435;-64
2024/04/05 00:05:14;;;;;;;10.13;3.15;;;14.00;95.50;;;;;;5019444;28;20049;-64
2024/04/05 00:07:40;;;;;;;7.80;2.23;;;13.90;95.50;;;;;;5017982;28;20034;-64
2024/04/05 00:10:07;;;;;;;8.90;2.40;;;14.00;95.10;;;;;;5019850;28;20085;-64
2024/04/05 00:12:36;;;;;;;9.07;2.92;;;14.00;95.50;;;;;;5018417;28;20034;-65
2024/04/05 00:15:03;;;;;;;5.05;2.10;;;13.90;95.70;;;;;;5024418;28;20105;-63
2024/04/05 00:17:29;;;;;;;7.65;2.00;;;13.90;95.40;;;;;;5022890;28;20462;-64
2024/04/05 00:19:55;;;;;;;11.02;2.40;;;14.00;94.80;;;;;;5021292;28;20105;-63
2024/04/05 00:22:22;;;;;;;5.32;2.95;;;14.00;95.00;;;;;;5012851;28;20053;-64
2024/04/05 00:24:48;;;;;;;9.20;2.33;;;14.00;95.20;;;;;;5027064;28;20069;-64
2024/04/05 00:27:14;;;;;;;8.00;2.00;;;13.90;95.30;;;;;;5022828;28;20037;-64
2024/04/05 00:29:39;;;;;;;3.87;2.00;;;13.90;95.60;;;;;;5018650;28;20065;-64
2024/04/05 00:32:05;;;;;;;7.17;1.90;;;13.90;95.30;;;;;;5011727;28;20671;-64
2024/04/05 00:34:31;;;;;;;4.57;1.93;;;13.90;95.10;;;;;;5018140;28;20030;-64
2024/04/05 00:36:56;;;;;;;6.17;2.10;;;13.80;95.50;;;;;;5010841;28;20052;-64
2024/04/05 00:39:22;;;;;;;8.43;2.30;;;13.80;95.70;;;;;;5019338;28;20084;-65
2024/04/05 00:41:48;;;;;;;5.75;2.20;;;13.80;95.70;;;;;;5017192;28;20025;-65
2024/04/05 00:44:14;;;;;;;7.33;2.97;;;13.70;95.70;;;;;;5018030;28;20105;-64
2024/04/05 00:46:40;;;;;;;6.32;2.33;;;13.70;95.50;;;;;;5023221;28;20025;-64
2024/04/05 00:49:06;;;;;;;4.78;1.98;;;13.80;95.20;;;;;;5018508;28;20514;-64
2024/04/05 00:51:32;;;;;;;;;;;13.80;94.60;;;;;;5018863;28;20029;-64
2024/04/05 00:53:58;;;;;;;6.88;1.90;;;13.90;94.30;;;;;;5018813;28;20355;-64
2024/04/05 00:56:25;;;;;;;3.85;1.70;;;13.90;94.20;;;;;;5017941;28;20030;-65
2024/04/05 00:58:50;;;;;;;9.85;4.63;;;14.10;93.80;;;;;;5019275;28;20029;-64
2024/04/05 01:01:16;;;;;;;6.77;2.00;;;14.00;93.80;;;;;;5019282;28;20039;-64
2024/04/05 01:03:42;;;;;;;4.78;2.05;;;13.90;93.60;;;;;;5014686;28;20083;-64
2024/04/05 01:06:08;;;;;;;8.03;1.73;;;13.90;93.70;;;;;;5015066;28;20135;-64
2024/04/05 01:08:34;;;;;;;6.63;2.30;;;13.80;94.00;;;;;;5020230;28;20160;-64
2024/04/05 01:11:00;;;;;;;4.53;2.45;;;13.90;93.40;;;;;;5017531;28;20114;-64
2024/04/05 01:13:26;;;;;;;5.33;1.47;;;13.90;93.30;;;;;;5021002;28;20498;-64
2024/04/05 01:15:52;;;;;;;4.83;2.17;;;13.70;94.00;;;;;;5021360;28;20033;-64
2024/04/05 01:18:17;;;;;;;9.70;2.10;;;13.80;93.30;;;;;;5020363;28;20025;-64
2024/04/05 01:20:45;;;;;;;7.33;2.10;;;13.70;93.50;;;;;;5019297;28;20029;-65
2024/04/05 01:23:14;;;;;;;5.10;2.00;;;13.80;92.70;;;;;;5018730;28;20395;-63
2024/04/05 01:25:40;;;;;;;4.32;1.63;;;13.80;92.90;;;;;;5021287;28;20060;-64
2024/04/05 01:28:12;;;;;;;2.97;1.37;;;13.70;92.90;;;;;;5021936;28;20029;-64
2024/04/05 01:30:39;;;;;;;8.88;1.52;;;13.80;92.60;;;;;;5014676;28;20046;-64
2024/04/05 01:33:05;;;;;;;7.45;1.60;;;13.80;92.50;;;;;;5027983;28;20122;-64
2024/04/05 01:35:31;;;;;;;6.93;1.73;;;13.90;92.70;;;;;;5019727;28;20030;-64
2024/04/05 01:37:57;;;;;;;8.03;1.20;;;13.80;92.30;;;;;;5011177;28;20555;-64
2024/04/05 01:40:24;;;;;;;5.93;2.00;;;13.90;92.50;;;;;;5020572;28;20408;-64
2024/04/05 01:42:50;;;;;;;8.13;2.10;;;13.90;92.00;;;;;;5018388;28;20026;-64
2024/04/05 01:45:15;;;;;;;6.00;2.00;;;13.80;92.90;;;;;;5020712;28;20043;-64
2024/04/05 01:47:43;;;;;;;8.98;1.60;;;13.80;92.70;;;;;;5020372;28;20037;-64
2024/04/05 01:50:08;;;;;;;7.18;1.38;;;13.80;92.50;;;;;;5022276;28;20045;-64
2024/04/05 01:52:34;;;;;;;6.40;2.07;;;13.90;92.00;;;;;;5018057;28;20116;-64
2024/04/05 01:55:00;;;;;;;6.83;2.07;;;13.90;92.30;;;;;;5018518;28;20509;-64
2024/04/05 01:57:26;;;;;;;8.63;1.80;;;13.90;92.40;;;;;;5018539;28;20030;-64
2024/04/05 01:59:53;;;;;;;5.93;1.73;;;13.90;91.90;;;;;;5018410;28;20065;-65
2024/04/05 02:02:20;;;;;;;4.63;1.42;;;13.90;92.00;;;;;;5020042;28;20034;-64
2024/04/05 02:04:46;;;;;;;7.13;1.80;;;13.90;92.90;;;;;;5013774;28;20046;-64
2024/04/05 02:07:11;;;;;;;3.00;1.67;;;13.90;92.10;;;;;;5022698;28;20033;-64
2024/04/05 02:09:37;;;;;;;6.03;1.70;;;14.00;91.50;;;;;;5016408;28;20037;-64
2024/04/05 02:12:04;;;;;;;8.17;1.57;;;14.00;92.30;;;;;;5017882;28;20069;-64
2024/04/05 02:14:29;;;;;;;;;;;14.00;92.10;;;;;;5018753;28;20112;-64
2024/04/05 02:16:56;;;;;;;3.80;1.65;;;13.90;92.20;;;;;;5011993;28;19992;-64
2024/04/05 02:19:22;;;;;;;7.22;2.55;;;13.70;93.10;;;;;;5019224;28;20048;-64
2024/04/05 02:21:48;;;;;;;9.35;2.15;;;13.70;93.40;;;;;;5015936;28;20040;-64
2024/04/05 02:24:14;;;;;;;4.88;1.70;;;13.70;92.80;;;;;;5019421;28;20184;-64
2024/04/05 02:26:40;;;;;;;7.43;2.10;;;13.70;93.20;;;;;;5017764;28;20030;-64
2024/04/05 02:29:05;;;;;;;5.70;1.80;;;13.60;93.50;;;;;;5013141;28;20037;-64
2024/04/05 02:31:31;;;;;;;2.13;1.70;;;13.60;93.50;;;;;;5021073;28;20029;-64
2024/04/05 02:33:57;;;;;;;7.00;2.27;;;13.50;94.20;;;;;;5014339;28;20038;-63
2024/04/05 02:36:22;;;;;;;6.57;1.67;;;13.40;93.70;;;;;;5018586;28;20057;-64
2024/04/05 02:38:48;;;;;;;6.50;2.03;;;13.40;93.50;;;;;;5012748;28;20040;-64
2024/04/05 02:41:14;;;;;;;7.68;1.90;;;13.40;93.80;;;;;;5018575;28;20091;-64
2024/04/05 02:43:40;;;;;;;6.53;1.98;;;13.40;93.60;;;;;;5015741;28;20705;-64
2024/04/05 02:46:06;;;;;;;4.63;2.00;;;13.40;93.50;;;;;;5022198;28;20033;-64
2024/04/05 02:48:31;;;;;;;4.73;1.60;;;13.40;93.30;;;;;;5018950;28;20029;-64
2024/04/05 02:50:57;;;;;;;6.73;2.13;;;13.30;93.80;;;;;;5021390;28;20053;-63
2024/04/05 02:53:24;;;;;;;5.13;1.53;;;13.30;93.50;;;;;;5019795;28;20574;-64
2024/04/05 02:55:50;;;;;;;3.33;1.88;;;13.20;93.80;;;;;;5014167;28;20033;-64
2024/04/05 02:58:16;;;;;;;5.67;1.90;;;13.20;94.30;;;;;;5018174;28;20025;-64
2024/04/05 03:00:42;;;;;;;6.07;1.70;;;13.20;94.00;;;;;;5018864;28;20273;-64
2024/04/05 03:03:09;;;;;;;;;;;13.30;93.60;;;;;;5025662;28;20537;-64
2024/04/05 03:05:35;;;;;;;4.83;1.37;;;13.20;93.70;;;;;;5021678;28;19917;-64
2024/04/05 03:08:01;;;;;;;4.77;1.83;;;13.20;93.50;;;;;;5018333;28;20045;-64
2024/04/05 03:10:26;;;;;;;4.33;1.40;;;13.20;93.60;;;;;;5021426;28;20112;-64
2024/04/05 03:12:52;;;;;;;4.87;1.40;;;13.20;93.70;;;;;;5028005;28;20103;-64
2024/04/05 03:15:18;;;;;;;4.43;1.90;;;13.20;93.10;;;;;;5028582;28;20041;-65
2024/04/05 03:17:45;;;;;;;4.05;1.60;;;13.30;93.00;;;;;;5032990;28;20435;-64
2024/04/05 03:20:13;;;;;;;4.25;1.73;;;13.10;93.30;;;;;;5023947;28;20033;-64
2024/04/05 03:22:40;;;;;;;3.00;1.40;;;13.00;94.40;;;;;;5022387;28;20033;-64
2024/04/05 03:25:06;;;;;;;;;;;12.90;94.30;;;;;;5020739;28;20128;-64
2024/04/05 03:27:31;;;;;;;5.53;1.70;;;13.10;93.40;;;;;;5020065;28;20067;-64
2024/04/05 03:29:57;;;;;;;5.70;1.55;;;13.10;93.30;;;;;;5021098;28;20574;-64
2024/04/05 03:32:23;;;;;;;5.53;1.43;;;13.10;93.50;;;;;;5025558;28;20033;-64
2024/04/05 03:34:48;;;;;;;5.63;1.73;;;13.00;94.00;;;;;;5025073;28;20069;-64
2024/04/05 03:37:14;;;;;;;6.37;1.80;;;13.00;93.80;;;;;;5014143;28;20030;-64
2024/04/05 03:39:39;;;;;;;3.77;1.73;;;13.00;94.10;;;;;;5022962;28;20116;-64
2024/04/05 03:42:05;;;;;;;6.67;1.83;;;13.00;93.70;;;;;;5017440;28;20034;-64
2024/04/05 03:44:31;;;;;;;5.97;1.97;;;13.00;93.90;;;;;;5024059;28;20117;-64
2024/04/05 03:46:57;;;;;;;6.15;1.98;;;13.00;94.00;;;;;;5016329;28;20848;-64
2024/04/05 03:49:24;;;;;;;4.17;2.63;;;13.00;94.30;;;;;;5022574;28;20037;-64
2024/04/05 03:51:50;;;;;;;5.15;1.73;;;13.00;94.30;;;;;;5018070;28;20042;-64
2024/04/05 03:54:16;;;;;;;5.27;1.70;;;12.90;94.50;;;;;;5022358;28;20029;-64
2024/04/05 03:56:41;;;;;;;4.40;1.73;;;13.00;94.50;;;;;;5020365;28;20026;-64
2024/04/05 03:59:08;;;;;;;3.33;1.50;;;12.90;94.70;;;;;;5020680;28;20030;-64
2024/04/05 04:01:33;;;;;;;7.05;1.77;;;12.90;95.00;;;;;;5021697;28;20022;-64
2024/04/05 04:03:59;;;;;;;8.40;1.70;;;12.90;94.30;;;;;;5021652;28;20121;-64
2024/04/05 04:06:25;;;;;;;6.50;1.95;;;12.90;94.50;;;;;;5011967;28;20034;-63
2024/04/05 04:08:51;;;;;;;1.77;1.37;;;13.00;94.30;;;;;;5018955;28;20467;-63
2024/04/05 04:11:17;;;;;;;6.77;2.00;;;12.90;94.60;;;;;;5018744;28;20582;-64
2024/04/05 04:13:43;;;;;;;5.47;1.65;;;12.80;95.30;;;;;;5021456;28;20272;-63
2024/04/05 04:16:09;;;;;;;7.10;1.87;;;12.80;95.10;;;;;;5024124;28;20052;-64
2024/04/05 04:18:35;;;;;;;6.05;1.80;;;12.70;95.10;;;;;;5020114;28;20316;-63
2024/04/05 04:21:02;;;;;;;6.13;1.50;;;12.70;95.30;;;;;;5018966;28;20032;-63
2024/04/05 04:23:29;;;;;;;3.60;1.55;;;12.70;95.70;;;;;;5019229;28;20030;-63
2024/04/05 04:25:55;;;;;;;6.07;1.63;;;12.70;95.70;;;;;;5024381;28;20126;-64
2024/04/05 04:28:22;;;;;;;3.38;1.58;;;12.60;95.60;;;;;;5020023;28;20435;-63
2024/04/05 04:30:48;;;;;;;6.10;2.00;;;12.50;96.00;;;;;;5019362;28;20061;-63
2024/04/05 04:33:14;;;;;;;4.72;1.75;;;12.50;96.80;;;;;;5015951;28;20503;-63
2024/04/05 04:35:48;;;;;;;5.35;2.03;;;12.50;96.90;;;;;;5018526;28;20116;-63
2024/04/05 04:38:15;;;;;;;8.57;1.77;;;12.40;97.10;;;;;;5024399;28;20026;-63
2024/04/05 04:40:41;;;;;;;5.13;2.05;;;12.40;96.80;;;;;;5018371;28;20137;-63
2024/04/05 04:43:07;;;;;;;6.10;1.63;;;12.40;96.80;;;;;;5020725;28;20117;-63
2024/04/05 04:45:33;;;;;;;4.30;1.87;;;12.50;96.50;;;;;;5015301;28;20063;-63
2024/04/05 04:47:58;;;;;;;4.20;1.77;;;12.50;96.50;;;;;;5018190;28;20316;-63
2024/04/05 04:50:24;;;;;;;2.07;1.50;;;12.60;96.00;;;;;;5024770;28;20830;-64
2024/04/05 04:52:50;;;;;;;5.30;2.10;;;12.70;95.30;;;;;;5017051;28;20299;-63
2024/04/05 04:55:17;;;;;;;4.17;1.53;;;12.70;95.40;;;;;;5016608;28;20037;-64
2024/04/05 04:57:43;;;;;;;;;;;12.50;95.80;;;;;;5021258;28;20709;-63
2024/04/05 05:00:09;;;;;;;4.35;2.45;;;12.60;95.80;;;;;;5017945;28;19920;-64
2024/04/05 05:02:35;;;;;;;;;;;12.60;95.90;;;;;;5024378;28;20624;-64
2024/04/05 05:05:00;;;;;;;4.95;2.20;;;12.60;96.20;;;;;;5019525;28;19932;-63
2024/04/05 05:07:26;;;;;;;5.00;2.07;;;12.50;96.60;;;;;;5020251;28;20112;-63
2024/04/05 05:09:52;;;;;;;4.40;1.80;;;12.40;96.40;;;;;;5016469;28;20411;-63
2024/04/05 05:12:18;;;;;;;4.80;2.10;;;12.50;96.10;;;;;;5023143;28;20040;-63
2024/04/05 05:14:43;;;;;;;5.43;2.08;;;12.50;96.60;;;;;;5018821;28;20041;-63
2024/04/05 05:17:09;;;;;;;6.03;2.93;;;12.40;96.80;;;;;;5021437;28;20029;-63
2024/04/05 05:19:35;;;;;;;7.43;2.30;;;12.40;96.70;;;;;;5018982;28;20088;-63
2024/04/05 05:22:00;;;;;;;4.33;1.90;;;12.50;96.00;;;;;;5019057;28;20041;-64
2024/04/05 05:24:26;;;;;;;5.27;1.57;;;12.50;96.60;;;;;;5019884;28;20041;-63
2024/04/05 05:26:51;;;;;;;6.43;2.40;;;12.50;96.00;;;;;;5021221;28;20109;-63
2024/04/05 05:29:17;;;;;;;11.17;2.10;;;12.60;95.90;;;;;;5023555;28;20036;-64
2024/04/05 05:31:42;;;;;;;5.50;2.00;;;12.60;95.90;;;;;;5025368;28;20119;-65
2024/04/05 05:34:08;;;;;;;5.03;2.50;;;12.70;95.80;;;;;;5023181;28;20055;-64
2024/04/05 05:36:34;;;;;;;3.37;1.83;;;12.80;96.00;;;;;;5023231;28;20037;-64
2024/04/05 05:39:03;;;;;;;5.90;2.27;;;12.70;95.90;;;;;;5020137;28;20033;-64
2024/04/05 05:41:29;;;;;;;6.30;1.90;;;12.70;95.70;;;;;;5020319;28;20287;-64
2024/04/05 05:43:55;;;;;;;8.05;1.98;;;12.80;95.40;;;;;;5018067;28;20030;-64
2024/04/05 05:46:21;;;;;;;4.00;2.13;;;12.80;95.70;;;;;;5028799;28;20056;-64
2024/04/05 05:48:48;;;;;;;6.93;2.17;;;12.90;95.70;;;;;;5017807;28;20427;-63
2024/04/05 05:51:14;;;;;;;5.80;2.00;;;12.90;95.60;;;;;;5019701;28;20113;-63
2024/04/05 05:53:40;;;;;;;4.90;1.77;;;13.00;94.80;;;;;;5019825;28;20108;-63
2024/04/05 05:56:07;;;;;;;5.75;1.95;;;13.20;94.30;;;;;;5018791;28;20033;-64
2024/04/05 05:58:33;;;;;;;;;;;13.30;94.00;;;;;;5010980;28;20053;-62
2024/04/05 06:01:05;;;;;;;5.82;1.73;;;13.40;94.20;;;;;;5017286;28;20457;-62
2024/04/05 06:03:31;;;;;;;3.78;2.03;;;13.50;93.80;;;;;;5016357;28;20042;-62
2024/04/05 06:05:56;;;;;;;3.63;1.63;;;13.90;92.60;;;;;;5019513;28;20048;-63
2024/04/05 06:08:22;;;;;;;8.97;2.13;;;14.20;92.30;;;;;;5014058;28;20076;-63
2024/04/05 06:10:57;;;;;;;4.25;1.73;;;14.60;90.70;;;;;;5018877;28;20036;-63
2024/04/05 06:13:23;;;;;;;5.60;1.80;;;14.50;90.70;;;;;;5022803;28;20026;-63
2024/04/05 06:15:54;;;;;;;7.30;1.85;;;14.70;90.60;;;;;;5016452;28;20061;-63
2024/04/05 06:18:20;;;;;;;4.47;1.60;;;15.00;90.20;;;;;;5018825;28;20060;-63
2024/04/05 06:20:52;;;;;;;3.67;1.73;;;15.10;88.20;;;;;;5018774;28;20057;-63
2024/04/05 06:23:18;;;;;;;11.20;2.45;;;15.20;87.10;;;;;;5017105;28;20105;-63
2024/04/05 06:25:55;;;;;;;2.95;1.55;;;15.40;87.00;;;;;;5014629;28;20037;-62
2024/04/05 06:28:21;;;;;;;4.68;2.17;;;15.80;87.30;;;;;;5024705;28;20034;-63
2024/04/05 06:30:46;;;;;;;3.53;1.75;;;16.00;85.70;;;;;;5018601;28;20490;-63
2024/04/05 06:33:12;;;;;;;5.07;1.77;;;16.20;84.80;;;;;;5021161;28;20111;-63
2024/04/05 06:35:38;;;;;;;5.40;1.67;;;16.40;82.90;;;;;;5012763;28;20384;-63
2024/04/05 06:38:04;;;;;;;5.30;1.75;;;16.80;82.10;;;;;;5022884;28;20279;-63
2024/04/05 06:40:30;;;;;;;8.82;1.85;;;16.50;82.40;;;;;;5020137;28;20469;-63
2024/04/05 06:42:56;;;;;;;4.20;2.20;;;16.80;81.30;;;;;;5021441;28;20109;-63
2024/04/05 06:45:22;;;;;;;;;;;16.80;81.10;;;;;;5023685;28;20037;-63
2024/04/05 06:47:49;;;;;;;4.25;1.92;;;17.10;81.00;;;;;;5024729;28;20006;-63
2024/04/05 06:50:14;;;;;;;4.57;1.90;;;17.50;80.20;;;;;;5019874;28;20029;-63
2024/04/05 06:52:40;;;;;;;5.13;2.05;;;17.20;79.50;;;;;;5019753;28;20033;-63
2024/04/05 06:55:08;;;;;;;4.53;1.70;;;17.20;80.00;;;;;;5022035;28;20495;-63
2024/04/05 06:57:35;;;;;;;4.05;1.83;;;16.90;79.70;;;;;;5022840;28;20594;-63
2024/04/05 07:00:02;;;;;;;6.05;1.85;;;16.70;80.60;;;;;;5021244;28;20041;-63
2024/04/05 07:02:28;;;;;;;5.40;1.83;;;17.00;80.80;;;;;;5020300;28;20037;-63
2024/04/05 07:04:53;;;;;;;9.20;2.40;;;16.80;79.70;;;;;;5026513;28;20499;-62
2024/04/05 07:07:19;;;;;;;5.27;2.10;;;17.00;79.70;;;;;;5020105;28;20061;-63
2024/04/05 07:09:45;;;;;;;4.27;2.00;;;16.90;81.10;;;;;;5024754;28;20487;-64
2024/04/05 07:12:11;;;;;;;5.03;2.10;;;16.80;80.50;;;;;;5023840;28;20041;-62
2024/04/05 07:14:37;;;;;;;;;;;16.90;81.40;;;;;;5022448;28;20038;-62
2024/04/05 07:17:03;;;;;;;5.38;1.73;;;17.10;78.90;;;;;;5020571;28;20587;-62
2024/04/05 07:19:29;;;;;;;3.85;1.70;;;16.60;80.80;;;;;;5020711;28;20057;-62
2024/04/05 07:21:55;;;;;;;6.82;1.77;;;16.30;81.90;;;;;;5021032;28;20407;-63
2024/04/05 07:24:21;;;;;;;5.45;1.95;;;16.20;84.40;;;;;;5024737;28;20022;-63
2024/04/05 07:26:47;;;;;;;5.63;1.77;;;16.10;83.00;;;;;;5022536;28;20030;-62
2024/04/05 07:29:12;;;;;;;3.70;1.57;;;16.10;84.20;;;;;;5021816;28;20155;-63
2024/04/05 07:31:38;;;;;;;4.97;1.50;;;16.40;81.50;;;;;;5019546;28;20030;-62
2024/04/05 07:34:04;;;;;;;3.53;1.40;;;16.30;81.50;;;;;;5014531;28;20030;-63
2024/04/05 07:36:30;;;;;;;6.00;1.70;;;16.30;81.00;;;;;;5020486;28;20026;-63
2024/04/05 07:38:56;;;;;;;6.82;1.80;;;16.40;80.60;;;;;;5020183;28;20033;-63
2024/04/05 07:41:22;;;;;;;2.23;1.70;;;16.50;81.10;;;;;;5018332;28;20379;-64
2024/04/05 07:43:49;;;;;;;4.33;1.70;;;17.60;80.50;;;;;;5019549;28;20281;-64
2024/04/05 07:46:14;;;;;;;2.67;1.63;;;19.50;73.00;;;;;;5017429;28;20505;-64
2024/04/05 07:48:40;;;;;;;4.50;1.63;;;21.20;71.20;;;;;;5020043;28;20159;-64
2024/04/05 07:51:06;;;;;;;6.22;2.90;;;20.90;67.50;;;;;;5023350;28;20025;-64
2024/04/05 07:53:32;;;;;;;4.60;1.90;;;21.20;67.50;;;;;;5018402;28;20116;-65
2024/04/05 07:56:00;;;;;;;4.90;1.60;;;20.60;68.10;;;;;;5018892;28;20643;-65
2024/04/05 07:58:25;;;;;;;2.50;1.33;;;20.20;69.60;;;;;;5020935;28;20283;-64
2024/04/05 08:00:51;;;;;;;3.30;1.50;;;19.90;69.70;;;;;;5019587;28;20381;-64
2024/04/05 08:03:17;;;;;;;2.57;1.40;;;20.20;69.70;;;;;;5021742;28;20026;-66
2024/04/05 08:05:43;;;;;;;7.20;1.25;;;21.00;68.90;;;;;;5016787;28;20045;-65
2024/04/05 08:08:09;;;;;;;2.97;1.52;;;22.40;66.00;;;;;;5020844;28;20602;-66
2024/04/05 08:10:35;;;;;;;3.92;1.73;;;21.80;63.80;;;;;;5023828;28;20041;-67
2024/04/05 08:13:02;;;;;;;4.35;1.70;;;22.30;64.10;;;;;;5018332;28;20591;-67
2024/04/05 08:15:30;;;;;;;3.95;1.50;;;21.60;63.80;;;;;;5018860;28;20164;-66
2024/04/05 08:17:55;;;;;;;2.20;0.98;;;20.80;66.30;;;;;;5020469;28;20044;-67
2024/04/05 08:20:21;;;;;;;2.17;1.20;;;20.40;68.30;;;;;;5020766;28;20021;-66
2024/04/05 08:22:47;;;;;;;5.00;1.27;;;19.60;69.80;;;;;;5020763;28;20045;-66
2024/04/05 08:25:13;;;;;;;2.55;1.25;;;19.50;71.60;;;;;;5016855;28;20042;-66
2024/04/05 08:27:47;;;;;;;3.22;1.45;;;19.30;70.40;;;;;;5022114;28;20061;-66
2024/04/05 08:30:12;;;;;;;2.70;1.15;;;18.90;72.10;;;;;;5017505;28;20527;-66
2024/04/05 08:32:42;;;;;;;3.95;1.55;;;18.90;72.50;;;;;;5021729;28;20053;-66
2024/04/05 08:35:09;;;;;;;4.28;1.38;;;18.90;72.30;;;;;;5019358;28;20084;-67
2024/04/05 08:37:36;;;;;;;3.85;1.20;;;18.70;73.80;;;;;;5026208;28;20053;-66
2024/04/05 08:40:03;;;;;;;3.15;1.80;;;18.40;72.30;;;;;;5023589;28;20025;-66
2024/04/05 08:42:32;;;;;;;3.85;1.15;;;18.30;75.00;;;;;;5024616;28;20143;-67
2024/04/05 08:44:58;;;;;;;4.47;1.83;;;18.20;74.20;;;;;;5024687;28;20073;-65
2024/04/05 08:47:26;;;;;;;3.25;1.38;;;18.20;75.10;;;;;;5023001;28;20033;-66
2024/04/05 08:49:54;;;;;;;2.78;1.35;;;18.30;74.20;;;;;;5019322;28;20026;-66
2024/04/05 08:52:19;;;;;;;3.13;1.33;;;18.20;76.00;;;;;;5018194;28;20056;-66
2024/04/05 08:54:45;;;;;;;3.97;1.40;;;18.60;73.50;;;;;;5021256;28;20523;-67
2024/04/05 08:57:13;;;;;;;8.20;1.75;;;19.80;72.60;;;;;;5021294;28;20455;-68
2024/04/05 08:59:39;;;;;;;2.20;1.35;;;21.20;69.60;;;;;;5018400;28;20116;-66
2024/04/05 09:02:09;;;;;;;18.85;2.22;;;20.90;66.20;;;;;;5014261;28;20116;-66
2024/04/05 09:04:36;;;;;;;5.70;1.80;;;21.40;66.10;;;;;;5023087;28;20033;-67
2024/04/05 09:07:04;;;;;;;9.40;2.63;;;23.90;63.80;;;;;;5020442;28;20049;-68
2024/04/05 09:09:32;;;;;;;10.30;2.97;;;23.20;66.10;;;;;;5021823;28;20041;-68
2024/04/05 09:12:10;;;;;;;5.50;2.78;;;23.30;63.70;;;;;;5022689;28;20099;-68
2024/04/05 09:14:37;;;;;;;10.75;2.22;;;22.00;66.30;;;;;;5019569;28;20080;-68
2024/04/05 09:17:12;;;;;;;5.10;1.30;;;21.30;68.90;;;;;;5018555;28;20037;-68
2024/04/05 09:19:37;;;;;;;7.13;2.05;;;21.30;67.40;;;;;;5018871;28;20040;-69
2024/04/05 09:22:04;;;;;;;4.23;2.00;;;21.10;68.20;;;;;;5018279;28;20037;-70
2024/04/05 09:24:30;;;;;;;7.00;1.90;;;20.80;67.80;;;;;;5017664;28;20458;-68
2024/04/05 09:27:00;;;;;;;12.65;3.25;;;21.10;67.50;;;;;;5017000;28;20037;-67
2024/04/05 09:29:27;;;;;;;7.32;1.45;;;21.60;66.30;;;;;;5017669;28;20041;-67
2024/04/05 09:31:54;;;;;;;18.40;1.73;;;21.30;65.80;;;;;;5018100;28;20033;-67
2024/04/05 09:34:25;;;;;;;4.40;1.40;;;21.10;66.00;;;;;;5018081;28;20061;-67
2024/04/05 09:36:51;;;;;;;3.42;1.50;;;21.90;64.90;;;;;;5009800;28;20059;-67
2024/04/05 09:39:21;;;;;;;8.00;1.38;;;23.50;62.00;;;;;;5011350;28;20026;-67
2024/04/05 09:41:48;;;;;;;6.35;1.60;;;24.60;59.90;;;;;;5015731;28;20030;-66
2024/04/05 09:44:17;;;;;;;5.88;1.60;;;23.90;61.00;;;;;;5019880;28;20060;-68
2024/04/05 09:46:43;;;;;;;5.05;1.50;;;23.70;61.20;;;;;;5020650;28;20125;-69
2024/04/05 09:49:14;;;;;;;4.40;1.83;;;25.00;59.80;;;;;;5022862;28;20045;-69
2024/04/05 09:51:48;;;;;;;6.30;1.30;;;24.90;59.90;;;;;;5017587;28;20025;-69
2024/04/05 09:54:17;;;;;;;5.72;1.50;;;25.50;58.10;;;;;;5025248;28;20499;-69
2024/04/05 09:56:43;;;;;;;3.30;1.65;;;26.40;57.60;;;;;;5022989;28;20021;-69
2024/04/05 09:59:30;;;;;;;2.70;1.15;;;25.70;58.30;;;;;;5015636;28;20104;-69
2024/04/05 10:01:57;;;;;;;5.35;1.55;;;26.60;57.80;;;;;;5016926;28;20037;-69
2024/04/05 10:04:24;;;;;;;3.08;1.55;;;25.40;59.70;;;;;;5015150;28;20044;-69
2024/04/05 10:06:50;;;;;;;2.15;1.38;;;25.90;59.60;;;;;;5019206;28;20032;-69
2024/04/05 10:09:21;;;;;;;7.07;1.55;;;25.40;59.10;;;;;;5018969;28;20087;-69
2024/04/05 10:11:52;;;;;;;5.13;2.50;;;25.50;59.00;;;;;;5014485;28;20092;-69
2024/04/05 10:14:24;;;;;;;5.30;1.50;;;25.90;60.00;;;;;;5011592;28;20061;-69
2024/04/05 10:16:51;;;;;;;3.10;1.50;;;26.40;59.80;;;;;;5025543;28;20514;-67
2024/04/05 10:19:18;;;;;;;5.25;1.30;;;25.60;59.30;;;;;;5020573;28;20025;-67
2024/04/05 10:21:45;;;;;;;3.50;1.90;;;24.70;58.50;;;;;;5015197;28;20041;-67
2024/04/05 10:24:12;;;;;;;5.03;1.58;;;24.10;60.00;;;;;;5017393;28;20064;-67
2024/04/05 10:26:49;;;;;;;5.88;2.50;;;24.70;59.80;;;;;;5019455;28;20132;-67
2024/04/05 10:29:15;;;;;;;9.90;2.63;;;24.10;59.80;;;;;;5016735;28;20471;-67
2024/04/05 10:31:41;;;;;;;13.55;3.38;;;22.70;61.10;;;;;;5026750;28;20117;-67
2024/04/05 10:34:08;;;;;;;5.88;3.50;;;22.20;63.20;;;;;;5017204;28;20048;-66
2024/04/05 10:36:36;;;;;;;5.70;2.00;;;22.20;62.90;;;;;;5015568;28;20526;-66
2024/04/05 10:39:03;;;;;;;5.47;1.92;;;23.00;61.40;;;;;;5015735;28;20022;-67
2024/04/05 10:41:29;;;;;;;3.72;1.50;;;24.00;60.80;;;;;;5016357;28;20033;-67
2024/04/05 10:44:04;;;;;;;6.07;1.90;;;24.00;60.50;;;;;;5020692;28;20036;-67
2024/04/05 10:46:32;;;;;;;6.07;2.33;;;23.50;60.80;;;;;;5017716;28;20410;-67
2024/04/05 10:48:58;;;;;;;6.53;1.50;;;23.50;61.00;;;;;;5012963;28;20088;-67
2024/04/05 10:51:25;;;;;;;5.47;1.60;;;23.00;60.60;;;;;;5017320;28;20482;-67
2024/04/05 10:53:51;;;;;;;3.65;1.30;;;22.80;61.40;;;;;;5019217;28;20025;-66
2024/04/05 10:56:17;;;;;;;2.85;1.35;;;23.10;61.20;;;;;;5019426;28;20034;-67
2024/04/05 10:58:43;;;;;;;;;;;22.70;61.80;;;;;;5017742;28;20089;-66
2024/04/05 11:01:09;;;;;;;2.88;1.33;;;22.40;62.00;;;;;;5017787;28;20099;-66
2024/04/05 11:03:35;;;;;;;2.88;1.05;;;22.10;62.70;;;;;;5018730;28;20036;-66
2024/04/05 11:06:04;;;;;;;5.95;1.15;;;22.10;63.50;;;;;;5016477;28;20041;-67
2024/04/05 11:08:30;;;;;;;4.65;1.40;;;22.20;63.60;;;;;;5020623;28;20577;-66
2024/04/05 11:10:56;;;;;;;3.53;1.70;;;22.20;64.70;;;;;;5017710;28;20088;-66
2024/04/05 11:13:25;;;;;;;6.37;1.30;;;22.10;63.20;;;;;;5018984;28;20026;-66
2024/04/05 11:16:00;;;;;;;3.00;1.42;;;21.90;63.40;;;;;;5018084;28;20111;-66
2024/04/05 11:18:26;;;;;;;4.28;1.60;;;21.80;64.20;;;;;;5025912;28;20029;-67
2024/04/05 11:20:51;;;;;;;3.47;1.55;;;21.70;64.70;;;;;;5016871;28;20172;-66
2024/04/05 11:23:19;;;;;;;10.07;1.60;;;21.60;64.40;;;;;;5023091;28;20053;-66
2024/04/05 11:25:55;;;;;;;10.35;1.40;;;21.90;64.80;;;;;;5026033;28;20045;-66
2024/04/05 11:28:24;;;;;;;4.18;1.77;;;21.90;64.60;;;;;;5019239;28;20026;-67
2024/04/05 11:30:54;;;;;;;7.07;1.50;;;21.90;64.10;;;;;;5010368;28;20064;-66
2024/04/05 11:33:20;;;;;;;6.72;1.60;;;21.90;64.90;;;;;;5010840;28;20026;-68
2024/04/05 11:35:46;;;;;;;6.88;1.65;;;21.80;65.60;;;;;;5010767;28;20026;-66
2024/04/05 11:38:12;;;;;;;17.20;1.63;;;21.90;65.30;;;;;;5004912;28;20508;-66
2024/04/05 11:40:38;;;;;;;;;;;21.80;65.40;;;;;;5011314;28;20141;-66
2024/04/05 11:43:08;;;;;;;6.32;1.50;;;21.70;65.90;;;;;;5010433;28;19913;-66
2024/04/05 11:45:37;;;;;;;4.03;1.45;;;21.60;65.80;;;;;;5010155;28;20519;-67
2024/04/05 11:48:03;;;;;;;4.47;1.30;;;21.60;66.10;;;;;;5010017;28;20373;-68
2024/04/05 11:50:30;;;;;;;3.42;1.25;;;21.50;65.60;;;;;;5011327;28;20033;-67
2024/04/05 11:52:56;;;;;;;7.47;1.65;;;21.50;66.00;;;;;;5010511;28;20423;-67
2024/04/05 11:55:21;;;;;;;11.67;1.60;;;21.50;65.90;;;;;;5005907;28;20035;-67
2024/04/05 11:57:47;;;;;;;27.25;2.03;;;21.70;66.30;;;;;;5010256;28;20033;-67
2024/04/05 12:00:13;;;;;;;4.00;1.77;;;21.80;66.10;;;;;;5009704;28;20430;-67
2024/04/05 12:02:39;;;;;;;8.25;1.60;;;21.70;65.90;;;;;;5006080;28;20034;-67
2024/04/05 12:05:06;;;;;;;;;;;21.70;66.00;;;;;;5010765;28;20503;-65
2024/04/05 12:07:34;;;;;;;12.20;1.88;;;21.90;65.80;;;;;;5009935;28;19913;-65
2024/04/05 12:10:00;;;;;;;8.52;1.63;;;21.80;66.20;;;;;;5007384;28;20034;-64
2024/04/05 12:12:29;;;;;;;2.65;1.38;;;21.80;65.30;;;;;;5009421;28;20026;-63
2024/04/05 12:14:58;;;;;;;7.57;1.50;;;21.70;65.70;;;;;;5005651;28;20041;-64
2024/04/05 12:17:24;;;;;;;10.13;2.05;;;21.70;65.30;;;;;;5008923;28;20147;-64
2024/04/05 12:19:50;;;;;;;6.50;1.27;;;21.90;65.90;;;;;;5009877;28;20515;-64
2024/04/05 12:22:16;;;;;;;3.90;1.30;;;22.00;65.10;;;;;;5009820;28;20040;-63
2024/04/05 12:24:45;;;;;;;5.57;1.58;;;22.10;65.40;;;;;;5009403;28;20511;-64
2024/04/05 12:27:11;;;;;;;3.55;1.30;;;22.20;64.60;;;;;;5008976;28;20030;-67
2024/04/05 12:29:37;;;;;;;3.30;1.33;;;22.20;64.70;;;;;;5009867;28;20036;-67
2024/04/05 12:32:03;;;;;;;7.10;1.45;;;22.70;63.90;;;;;;5006065;28;20068;-68
2024/04/05 12:34:31;;;;;;;4.28;1.27;;;22.70;63.20;;;;;;5002715;28;20139;-67
2024/04/05 12:36:56;;;;;;;4.93;1.20;;;22.20;63.20;;;;;;5007132;28;20034;-67
2024/04/05 12:39:25;;;;;;;3.60;1.30;;;22.10;63.30;;;;;;5008774;28;20033;-68
2024/04/05 12:41:53;;;;;;;5.00;1.42;;;22.20;64.10;;;;;;5008770;28;20280;-69
2024/04/05 12:44:19;;;;;;;9.23;1.25;;;22.00;64.40;;;;;;5008736;28;20135;-67
2024/04/05 12:46:51;;;;;;;9.73;1.58;;;22.20;66.00;;;;;;5009274;28;20550;-67